createdAt,value
2022-12-19T00:01:48.966Z,-1.47
2022-12-19T00:04:12.390Z,-1.30
2022-12-19T00:06:33.957Z,-1.18
2022-12-19T00:08:57.039Z,-1.29
2022-12-19T00:11:20.487Z,-1.16
2022-12-19T00:13:42.841Z,-1.35
2022-12-19T00:16:13.662Z,-1.32
2022-12-19T00:18:35.232Z,-1.39
2022-12-19T00:20:59.014Z,-1.24
2022-12-19T00:23:20.537Z,-1.05
2022-12-19T00:25:42.046Z,-0.99
2022-12-19T00:28:04.441Z,-1.34
2022-12-19T00:30:26.086Z,-1.34
2022-12-19T00:32:47.759Z,-1.41
2022-12-19T00:35:09.534Z,-1.22
2022-12-19T00:37:31.027Z,-1.34
2022-12-19T00:39:52.548Z,-1.39
2022-12-19T00:42:14.043Z,-1.60
2022-12-19T00:44:35.550Z,-1.70
2022-12-19T00:46:57.025Z,-1.75
2022-12-19T00:49:18.536Z,-1.71
2022-12-19T00:51:40.145Z,-1.78
2022-12-19T00:54:02.288Z,-1.75
2022-12-19T00:56:29.148Z,-1.68
2022-12-19T00:58:50.884Z,-1.70
2022-12-19T01:01:17.864Z,-1.64
2022-12-19T01:03:39.601Z,-1.47
2022-12-19T01:06:01.409Z,-1.52
2022-12-19T01:08:23.348Z,-1.51
2022-12-19T01:10:48.066Z,-1.53
2022-12-19T01:13:09.547Z,-1.27
2022-12-19T01:15:31.044Z,-1.37
2022-12-19T01:17:52.558Z,-1.28
2022-12-19T01:20:17.604Z,-1.34
2022-12-19T01:22:41.785Z,-1.32
2022-12-19T01:25:03.588Z,-1.14
2022-12-19T01:27:25.099Z,-1.14
2022-12-19T01:29:52.683Z,-1.17
2022-12-19T01:32:14.451Z,-0.79
2022-12-19T01:34:35.948Z,-0.97
2022-12-19T01:36:57.433Z,-1.07
2022-12-19T01:39:18.962Z,-1.01
2022-12-19T01:41:40.538Z,-1.23
2022-12-19T01:44:05.642Z,-1.04
2022-12-19T01:46:51.616Z,-1.17
2022-12-19T01:49:26.356Z,-1.04
2022-12-19T01:51:49.493Z,-0.74
2022-12-19T01:54:15.769Z,-0.59
2022-12-19T01:56:42.389Z,-0.68
2022-12-19T01:59:10.264Z,-0.52
2022-12-19T02:01:32.115Z,-0.57
2022-12-19T02:03:56.239Z,-0.60
2022-12-19T02:06:17.847Z,-0.47
2022-12-19T02:08:41.922Z,-0.46
2022-12-19T02:11:03.518Z,-0.46
2022-12-19T02:13:25.118Z,-0.39
2022-12-19T02:15:56.113Z,-0.54
2022-12-19T02:18:38.845Z,-0.39
2022-12-19T02:21:21.900Z,-0.45
2022-12-19T02:24:04.467Z,-0.43
2022-12-19T02:26:53.496Z,-0.60
2022-12-19T02:29:33.525Z,-0.51
2022-12-19T02:32:28.858Z,-0.62
2022-12-19T02:34:58.264Z,-0.71
2022-12-19T02:37:36.230Z,-0.82
2022-12-19T02:40:16.114Z,-0.87
2022-12-19T02:42:45.645Z,-0.88
2022-12-19T02:45:10.008Z,-1.04
2022-12-19T02:47:32.593Z,-1.01
2022-12-19T02:49:54.157Z,-0.80
2022-12-19T02:52:21.496Z,-0.93
2022-12-19T02:54:44.883Z,-0.91
2022-12-19T02:57:51.177Z,-0.99
2022-12-19T03:00:22.047Z,-0.85
2022-12-19T03:03:00.426Z,-1.03
2022-12-19T03:05:35.365Z,-0.94
2022-12-19T03:08:09.234Z,-0.73
2022-12-19T03:10:46.084Z,-0.91
2022-12-19T03:13:27.090Z,-0.95
2022-12-19T03:15:49.303Z,-1.07
2022-12-19T03:18:11.346Z,-1.17
2022-12-19T03:20:57.784Z,-1.31
2022-12-19T03:23:19.943Z,-1.33
2022-12-19T03:25:45.777Z,-1.50
2022-12-19T03:28:12.223Z,-1.42
2022-12-19T03:30:36.219Z,-1.46
2022-12-19T03:32:58.175Z,-1.26
2022-12-19T03:35:28.616Z,-1.08
2022-12-19T03:37:52.383Z,-1.15
2022-12-19T03:40:25.986Z,-1.16
2022-12-19T03:43:08.619Z,-1.02
2022-12-19T03:45:48.633Z,-0.99
2022-12-19T03:48:17.673Z,-0.86
2022-12-19T03:51:16.581Z,-0.92
2022-12-19T03:54:29.147Z,-1.06
2022-12-19T03:56:58.152Z,-1.19
2022-12-19T03:59:28.166Z,-1.19
2022-12-19T04:01:52.002Z,-1.09
2022-12-19T04:04:14.274Z,-0.98
2022-12-19T04:06:37.691Z,-0.78
2022-12-19T04:09:00.153Z,-0.62
2022-12-19T04:11:22.526Z,-0.56
2022-12-19T04:13:54.687Z,-0.72
2022-12-19T04:16:27.664Z,-0.71
2022-12-19T04:18:56.268Z,-0.83
2022-12-19T04:21:25.192Z,-0.92
2022-12-19T04:23:52.991Z,-0.93
2022-12-19T04:26:16.597Z,-1.16
2022-12-19T04:28:47.140Z,-1.15
2022-12-19T04:31:13.512Z,-1.29
2022-12-19T04:33:35.000Z,-1.33
2022-12-19T04:35:56.545Z,-1.21
2022-12-19T04:38:18.057Z,-1.16
2022-12-19T04:40:41.778Z,-1.15
2022-12-19T04:43:03.439Z,-1.08
2022-12-19T04:45:24.928Z,-1.20
2022-12-19T04:47:46.701Z,-1.09
2022-12-19T04:50:09.649Z,-1.22
2022-12-19T04:52:31.196Z,-1.32
2022-12-19T04:54:52.704Z,-1.25
2022-12-19T04:57:14.222Z,-1.07
2022-12-19T04:59:35.717Z,-1.09
2022-12-19T05:01:57.590Z,-1.01
2022-12-19T05:04:19.828Z,-1.05
2022-12-19T05:06:41.336Z,-0.92
2022-12-19T05:09:02.929Z,-0.86
2022-12-19T05:11:24.537Z,-0.78
2022-12-19T05:13:46.093Z,-0.75
2022-12-19T05:16:10.792Z,-0.81
2022-12-19T05:18:32.687Z,-0.82
2022-12-19T05:20:54.639Z,-0.79
2022-12-19T05:23:17.420Z,-0.90
2022-12-19T05:25:39.450Z,-0.80
2022-12-19T05:28:00.933Z,-0.74
2022-12-19T05:30:24.439Z,-0.69
2022-12-19T05:32:45.911Z,-0.80
2022-12-19T05:35:08.314Z,-0.75
2022-12-19T05:37:29.958Z,-0.75
2022-12-19T05:39:51.527Z,-0.80
2022-12-19T05:42:13.043Z,-0.93
2022-12-19T05:44:34.573Z,-0.99
2022-12-19T05:46:56.209Z,-1.02
2022-12-19T05:49:17.826Z,-1.10
2022-12-19T05:51:39.463Z,-0.94
2022-12-19T05:54:01.324Z,-0.99
2022-12-19T05:56:23.433Z,-1.00
2022-12-19T05:58:45.817Z,-0.84
2022-12-19T06:01:10.304Z,-0.59
2022-12-19T06:03:31.918Z,-0.47
2022-12-19T06:05:53.675Z,-0.57
2022-12-19T06:08:15.130Z,-0.74
2022-12-19T06:10:36.636Z,-0.45
2022-12-19T06:12:58.110Z,-0.36
2022-12-19T06:15:19.725Z,-0.33
2022-12-19T06:17:41.212Z,-0.47
2022-12-19T06:20:02.763Z,-0.56
2022-12-19T06:22:24.271Z,-0.48
2022-12-19T06:24:45.769Z,-0.51
2022-12-19T06:27:07.278Z,-0.56
2022-12-19T06:29:28.809Z,-0.43
2022-12-19T06:31:50.322Z,-0.41
2022-12-19T06:34:22.073Z,-0.58
2022-12-19T06:36:53.708Z,-0.67
2022-12-19T06:39:15.784Z,-0.72
2022-12-19T06:41:55.663Z,-0.86
2022-12-19T06:44:17.834Z,-0.95
2022-12-19T06:46:40.313Z,-0.82
2022-12-19T06:49:02.489Z,-0.87
2022-12-19T06:51:24.217Z,-1.15
2022-12-19T06:53:45.691Z,-1.23
2022-12-19T06:56:07.343Z,-1.16
2022-12-19T06:58:28.997Z,-0.99
2022-12-19T07:00:50.610Z,-0.98
2022-12-19T07:03:14.874Z,-0.83
2022-12-19T07:05:36.582Z,-0.66
2022-12-19T07:07:58.049Z,-0.49
2022-12-19T07:10:19.667Z,-0.58
2022-12-19T07:12:41.230Z,-0.73
2022-12-19T07:15:02.819Z,-0.77
2022-12-19T07:17:25.931Z,-0.86
2022-12-19T07:19:47.734Z,-0.74
2022-12-19T07:22:09.703Z,-0.87
2022-12-19T07:24:31.996Z,-0.98
2022-12-19T07:26:53.600Z,-0.78
2022-12-19T07:29:15.206Z,-0.86
2022-12-19T07:31:36.746Z,-0.83
2022-12-19T07:33:58.530Z,-0.80
2022-12-19T07:36:21.198Z,-0.79
2022-12-19T07:38:42.683Z,-0.72
2022-12-19T07:41:04.211Z,-0.65
2022-12-19T07:43:26.090Z,-0.65
2022-12-19T07:45:53.659Z,-0.67
2022-12-19T07:48:15.219Z,-0.65
2022-12-19T07:50:37.105Z,-0.50
2022-12-19T07:52:59.217Z,-0.49
2022-12-19T07:55:20.832Z,-0.37
2022-12-19T07:57:42.331Z,-0.47
2022-12-19T08:00:04.843Z,-0.48
2022-12-19T08:02:26.473Z,-0.48
2022-12-19T08:04:48.171Z,-0.66
2022-12-19T08:07:09.644Z,-0.59
2022-12-19T08:09:31.477Z,-0.46
2022-12-19T08:11:53.706Z,-0.56
2022-12-19T08:14:15.246Z,-0.48
2022-12-19T08:16:55.524Z,-0.36
2022-12-19T08:19:18.217Z,-0.54
2022-12-19T08:21:39.693Z,-0.42
2022-12-19T08:24:01.255Z,-0.39
2022-12-19T08:26:26.744Z,-0.46
2022-12-19T08:28:48.254Z,-0.49
2022-12-19T08:31:12.621Z,-0.43
2022-12-19T08:33:34.569Z,-0.30
2022-12-19T08:35:56.063Z,-0.35
2022-12-19T08:38:17.596Z,-0.43
2022-12-19T08:40:44.215Z,-0.37
2022-12-19T08:43:08.652Z,-0.14
2022-12-19T08:45:30.513Z,-0.38
2022-12-19T08:47:52.774Z,-0.19
2022-12-19T08:50:14.422Z,-0.04
2022-12-19T08:52:36.321Z,-0.01
2022-12-19T08:54:58.067Z,0.01
2022-12-19T08:57:19.583Z,0.18
2022-12-19T08:59:41.123Z,0.35
2022-12-19T09:02:06.058Z,0.50
2022-12-19T09:05:57.617Z,0.45
2022-12-19T09:07:10.132Z,0.36
2022-12-19T09:09:31.621Z,0.54
2022-12-19T10:26:51.861Z,0.20
2022-12-19T10:31:57.669Z,0.71
2022-12-19T10:34:28.576Z,0.63
2022-12-19T10:37:25.549Z,0.59
2022-12-19T10:40:24.468Z,0.63
2022-12-19T10:43:03.294Z,0.70
2022-12-19T10:45:40.586Z,0.85
2022-12-19T10:48:04.643Z,0.86
2022-12-19T10:50:29.710Z,1.04
2022-12-19T10:52:56.835Z,1.07
2022-12-19T10:55:27.273Z,1.13
2022-12-19T10:57:48.850Z,1.38
2022-12-19T11:00:18.213Z,1.43
2022-12-19T11:02:42.386Z,1.54
2022-12-19T11:05:22.184Z,1.71
2022-12-19T11:08:03.833Z,1.74
2022-12-19T11:12:47.444Z,1.75
2022-12-19T11:19:30.243Z,1.86
2022-12-19T11:21:27.024Z,1.71
2022-12-19T11:29:27.341Z,1.95
2022-12-19T11:29:30.012Z,2.02
2022-12-19T11:29:31.958Z,2.00
2022-12-19T11:30:46.602Z,1.87
2022-12-19T11:33:16.536Z,1.81
2022-12-19T11:35:51.240Z,1.89
2022-12-19T11:38:16.889Z,1.83
2022-12-19T11:40:52.994Z,1.84
2022-12-19T11:46:13.879Z,1.90
2022-12-19T11:48:48.137Z,1.89
2022-12-19T11:51:40.095Z,1.95
2022-12-19T11:54:18.937Z,1.89
2022-12-19T11:56:41.005Z,1.97
2022-12-19T11:59:12.321Z,2.01
2022-12-19T12:01:54.316Z,1.99
2022-12-19T12:04:33.893Z,1.94
2022-12-19T12:06:57.833Z,1.94
2022-12-19T12:13:21.486Z,1.96
2022-12-19T12:19:58.960Z,2.00
2022-12-19T12:25:20.517Z,1.93
2022-12-19T12:31:01.644Z,2.06
2022-12-19T12:31:23.775Z,1.88
2022-12-19T12:31:44.721Z,1.94
2022-12-19T12:31:49.682Z,1.92
2022-12-19T12:35:46.221Z,1.81
2022-12-19T12:40:47.123Z,1.82
2022-12-19T12:43:17.678Z,1.87
2022-12-19T12:45:41.978Z,1.90
2022-12-19T12:48:07.771Z,1.95
2022-12-19T12:50:31.405Z,1.79
2022-12-19T12:52:58.126Z,1.78
2022-12-19T12:55:33.813Z,1.91
2022-12-19T12:57:55.777Z,2.01
2022-12-19T13:00:29.476Z,1.81
2022-12-19T13:02:58.387Z,1.94
2022-12-19T13:05:22.914Z,2.01
2022-12-19T13:07:54.117Z,1.99
2022-12-19T13:10:18.736Z,1.92
2022-12-19T13:13:03.856Z,1.76
2022-12-19T13:15:32.674Z,1.69
2022-12-19T13:17:54.101Z,1.92
2022-12-19T13:20:18.466Z,1.91
2022-12-19T13:22:42.579Z,1.90
2022-12-19T13:25:26.589Z,1.87
2022-12-19T13:27:48.504Z,1.88
2022-12-19T13:30:17.354Z,1.96
2022-12-19T13:32:38.812Z,1.82
2022-12-19T13:35:06.981Z,1.90
2022-12-19T13:39:54.619Z,1.98
2022-12-19T13:41:02.134Z,1.98
2022-12-19T13:43:46.393Z,1.83
2022-12-19T13:46:32.919Z,1.97
2022-12-19T13:49:02.911Z,2.00
2022-12-19T13:51:24.447Z,2.05
2022-12-19T13:53:45.963Z,2.11
2022-12-19T13:56:19.334Z,2.09
2022-12-19T13:59:05.035Z,2.15
2022-12-19T14:01:35.871Z,2.02
2022-12-19T14:04:07.987Z,2.10
2022-12-19T14:06:45.127Z,2.23
2022-12-19T14:11:24.227Z,2.10
2022-12-19T14:13:47.925Z,2.14
2022-12-19T14:15:13.407Z,2.12
2022-12-19T14:17:35.316Z,1.98
2022-12-19T14:20:34.069Z,1.90
2022-12-19T14:22:38.366Z,1.60
2022-12-19T14:25:50.190Z,1.51
2022-12-19T14:28:19.731Z,1.49
2022-12-19T14:30:35.258Z,1.51
2022-12-19T14:33:47.344Z,1.74
2022-12-19T14:36:15.204Z,1.95
2022-12-19T14:39:25.486Z,1.94
2022-12-19T14:41:47.366Z,1.97
2022-12-19T14:52:44.955Z,2.11
2022-12-19T14:53:52.662Z,2.00
2022-12-19T14:54:21.865Z,2.08
2022-12-19T14:54:29.065Z,2.00
2022-12-19T14:56:26.709Z,1.85
2022-12-19T14:58:56.994Z,1.72
2022-12-19T15:01:26.194Z,1.85
2022-12-19T15:04:51.789Z,1.65
2022-12-19T15:07:06.674Z,1.75
2022-12-19T15:11:04.446Z,1.82
2022-12-19T15:14:47.461Z,1.48
2022-12-19T15:15:25.432Z,1.36
2022-12-19T15:17:49.780Z,1.56
2022-12-19T15:20:11.429Z,1.56
2022-12-19T15:22:32.911Z,1.53
2022-12-19T15:24:54.507Z,1.52
2022-12-19T15:27:17.341Z,1.43
2022-12-19T15:29:38.971Z,1.35
2022-12-19T15:32:00.553Z,1.53
2022-12-19T15:34:34.885Z,1.50
2022-12-19T15:36:58.709Z,1.62
2022-12-19T15:39:20.911Z,1.57
2022-12-19T15:41:43.612Z,1.90
2022-12-19T15:44:10.130Z,1.94
2022-12-19T15:46:32.526Z,2.11
2022-12-19T15:48:54.208Z,1.76
2022-12-19T15:51:16.787Z,1.82
2022-12-19T15:53:41.105Z,2.00
2022-12-19T15:56:03.214Z,2.06
2022-12-19T15:58:28.369Z,2.00
2022-12-19T16:00:56.332Z,1.94
2022-12-19T16:03:23.512Z,2.09
2022-12-19T16:05:46.917Z,1.79
2022-12-19T16:08:19.569Z,1.57
2022-12-19T16:10:42.076Z,1.48
2022-12-19T16:13:03.975Z,1.64
2022-12-19T16:15:30.209Z,1.84
2022-12-19T16:17:52.471Z,1.73
2022-12-19T16:20:19.977Z,1.97
2022-12-19T16:22:42.544Z,2.18
2022-12-19T16:25:04.394Z,2.21
2022-12-19T16:27:31.011Z,2.13
2022-12-19T16:29:54.161Z,2.31
2022-12-19T16:32:16.354Z,2.23
2022-12-19T16:34:37.881Z,2.47
2022-12-19T16:36:59.347Z,2.55
2022-12-19T16:39:20.905Z,2.56
2022-12-19T16:41:44.194Z,2.49
2022-12-19T16:44:18.971Z,2.48
2022-12-19T16:46:44.232Z,2.48
2022-12-19T16:49:16.880Z,2.18
2022-12-19T16:51:38.725Z,2.15
2022-12-19T16:54:00.457Z,2.13
2022-12-19T16:56:25.639Z,2.25
2022-12-19T16:58:47.141Z,2.35
2022-12-19T17:01:10.317Z,2.38
2022-12-19T17:03:37.429Z,2.40
2022-12-19T17:05:59.183Z,2.35
2022-12-19T17:08:20.715Z,2.27
2022-12-19T17:10:45.244Z,2.34
2022-12-19T17:13:06.967Z,2.37
2022-12-19T17:15:34.430Z,2.23
2022-12-19T17:17:59.328Z,2.22
2022-12-19T17:20:23.289Z,2.23
2022-12-19T17:22:45.435Z,2.35
2022-12-19T17:25:18.693Z,2.18
2022-12-19T17:27:40.199Z,2.10
2022-12-19T17:30:01.699Z,2.31
2022-12-19T17:32:24.503Z,2.26
2022-12-19T17:34:46.309Z,2.31
2022-12-19T17:37:15.250Z,2.38
2022-12-19T17:39:37.909Z,2.32
2022-12-19T17:42:04.347Z,2.45
2022-12-19T17:44:25.847Z,2.57
2022-12-19T17:46:47.845Z,2.52
2022-12-19T17:49:16.975Z,2.49
2022-12-19T17:51:38.537Z,2.67
2022-12-19T17:54:00.033Z,2.77
2022-12-19T17:56:22.225Z,2.84
2022-12-19T17:58:43.912Z,2.77
2022-12-19T18:01:05.849Z,2.55
2022-12-19T18:03:27.512Z,2.70
2022-12-19T18:05:51.269Z,2.77
2022-12-19T18:08:32.482Z,2.78
2022-12-19T18:10:56.632Z,2.60
2022-12-19T18:13:18.242Z,2.65
2022-12-19T18:15:40.959Z,2.31
2022-12-19T18:18:02.541Z,2.01
2022-12-19T18:20:32.593Z,1.80
2022-12-19T18:22:55.936Z,1.85
2022-12-19T18:25:20.585Z,1.98
2022-12-19T18:27:42.576Z,2.23
2022-12-19T18:30:04.869Z,2.12
2022-12-19T18:32:26.493Z,2.16
2022-12-19T18:34:48.000Z,2.06
2022-12-19T18:37:14.940Z,2.09
2022-12-19T18:39:36.481Z,2.21
2022-12-19T18:41:58.088Z,2.37
2022-12-19T18:44:20.463Z,2.16
2022-12-19T18:46:42.621Z,2.23
2022-12-19T18:49:04.606Z,2.23
2022-12-19T18:51:26.116Z,2.32
2022-12-19T18:53:49.084Z,2.48
2022-12-19T18:56:11.214Z,2.52
2022-12-19T18:58:33.353Z,2.41
2022-12-19T19:00:59.369Z,2.47
2022-12-19T19:03:26.088Z,2.47
2022-12-19T19:05:47.871Z,2.61
2022-12-19T19:08:17.709Z,2.59
2022-12-19T19:10:39.287Z,2.79
2022-12-19T19:13:05.173Z,3.02
2022-12-19T19:15:33.630Z,3.04
2022-12-19T19:18:13.350Z,3.19
2022-12-19T19:20:38.637Z,3.20
2022-12-19T19:23:00.779Z,3.35
2022-12-19T19:25:22.317Z,3.23
2022-12-19T19:27:43.920Z,3.14
2022-12-19T19:30:06.613Z,3.11
2022-12-19T19:32:28.139Z,3.27
2022-12-19T19:34:49.865Z,3.12
2022-12-19T19:37:13.980Z,3.00
2022-12-19T19:39:35.710Z,2.99
2022-12-19T19:41:57.276Z,3.12
2022-12-19T19:44:18.896Z,3.08
2022-12-19T19:46:40.459Z,3.22
2022-12-19T19:49:02.007Z,3.02
2022-12-19T19:51:23.609Z,3.12
2022-12-19T19:53:45.983Z,3.28
2022-12-19T19:56:08.566Z,3.16
2022-12-19T19:58:30.460Z,3.15
2022-12-19T20:00:53.170Z,3.18
2022-12-19T20:03:22.308Z,3.33
2022-12-19T20:05:44.709Z,3.43
2022-12-19T20:08:06.539Z,3.44
2022-12-19T20:10:28.043Z,3.24
2022-12-19T20:12:49.509Z,3.40
2022-12-19T20:15:11.956Z,3.50
2022-12-19T20:17:33.537Z,3.41
2022-12-19T20:19:55.041Z,3.51
2022-12-19T20:22:16.679Z,3.55
2022-12-19T20:24:38.290Z,3.49
2022-12-19T20:26:59.901Z,3.43
2022-12-19T20:29:21.463Z,3.38
2022-12-19T20:31:44.073Z,3.57
2022-12-19T20:34:05.826Z,3.56
2022-12-19T20:36:27.364Z,3.60
2022-12-19T20:38:49.430Z,3.57
2022-12-19T20:41:10.975Z,3.44
2022-12-19T20:43:33.740Z,3.27
2022-12-19T20:46:03.646Z,3.04
2022-12-19T20:48:25.141Z,3.04
2022-12-19T20:50:46.617Z,2.98
2022-12-19T20:53:08.408Z,2.72
2022-12-19T20:55:29.893Z,2.91
2022-12-19T20:57:51.354Z,3.10
2022-12-19T21:00:14.836Z,3.11
2022-12-19T21:02:52.997Z,3.21
2022-12-19T21:05:19.657Z,3.16
2022-12-19T21:07:41.191Z,2.86
2022-12-19T21:10:02.700Z,2.91
2022-12-19T21:12:24.191Z,2.82
2022-12-19T21:14:45.681Z,2.77
2022-12-19T21:17:07.145Z,2.41
2022-12-19T21:19:28.629Z,2.39
2022-12-19T21:21:50.208Z,2.42
2022-12-19T21:24:12.117Z,2.22
2022-12-19T21:26:34.093Z,2.15
2022-12-19T21:28:57.990Z,2.13
2022-12-19T21:31:22.435Z,2.12
2022-12-19T21:33:45.576Z,2.02
2022-12-19T21:36:09.592Z,2.01
2022-12-19T21:38:31.084Z,2.12
2022-12-19T21:40:52.622Z,2.30
2022-12-19T21:43:14.364Z,2.32
2022-12-19T21:45:35.878Z,2.38
2022-12-19T21:47:57.349Z,2.33
2022-12-19T21:50:18.832Z,2.32
2022-12-19T21:52:40.818Z,2.41
2022-12-19T21:55:02.569Z,2.33
2022-12-19T21:57:24.060Z,2.36
2022-12-19T21:59:45.649Z,2.22
2022-12-19T22:02:10.534Z,2.17
2022-12-19T22:04:32.138Z,2.15
2022-12-19T22:06:53.771Z,2.20
2022-12-19T22:09:17.883Z,2.42
2022-12-19T22:11:39.613Z,2.55
2022-12-19T22:14:01.718Z,2.69
2022-12-19T22:16:23.263Z,2.73
2022-12-19T22:18:45.091Z,2.83
2022-12-19T22:21:09.278Z,2.97
2022-12-19T22:23:30.870Z,3.05
2022-12-19T22:26:07.043Z,2.99
2022-12-19T22:28:34.144Z,2.88
2022-12-19T22:30:55.629Z,2.91
2022-12-19T22:33:17.102Z,3.01
2022-12-19T22:35:38.669Z,3.23
2022-12-19T22:38:00.189Z,3.37
2022-12-19T22:40:21.718Z,3.37
2022-12-19T22:42:43.210Z,3.38
2022-12-19T22:45:05.124Z,3.38
2022-12-19T22:47:26.618Z,3.34
2022-12-19T22:49:52.175Z,3.32
2022-12-19T22:52:13.713Z,3.34
2022-12-19T22:54:35.169Z,3.30
2022-12-19T22:56:56.689Z,3.27
2022-12-19T22:59:18.202Z,3.29
2022-12-19T23:01:42.722Z,3.18
2022-12-19T23:04:06.791Z,3.17
2022-12-19T23:06:30.932Z,3.07
2022-12-19T23:08:52.524Z,3.00
2022-12-19T23:11:17.609Z,3.06
2022-12-19T23:13:40.666Z,3.07
2022-12-19T23:16:02.234Z,2.94
2022-12-19T23:18:24.115Z,3.02
2022-12-19T23:20:45.668Z,3.04
2022-12-19T23:23:07.168Z,2.88
2022-12-19T23:25:28.666Z,2.99
2022-12-19T23:27:50.163Z,2.95
2022-12-19T23:30:11.909Z,2.97
2022-12-19T23:32:33.390Z,2.99
2022-12-19T23:34:54.895Z,2.75
2022-12-19T23:37:16.337Z,2.77
2022-12-19T23:39:37.881Z,2.94
2022-12-19T23:41:59.804Z,2.84
2022-12-19T23:44:21.593Z,2.87
2022-12-19T23:46:43.084Z,2.81
2022-12-19T23:49:04.602Z,2.85
2022-12-19T23:51:27.277Z,2.80
2022-12-19T23:53:48.910Z,2.85
2022-12-19T23:56:13.996Z,2.94
2022-12-19T23:58:35.561Z,2.85
